Time;durP1;ratioP1;P1;durP2;ratioP2;P2;SDS_P1;SDS_P2;PMS_P1;PMS_P2;Temp;Humidity;BMP_temperature;BMP_pressure;BME280_temperature;BME280_humidity;BME280_pressure;Samples;Min_cycle;Max_cycle;Signal;HPM_P1;HPM_P2
2022/11/11 00:01:02;;;;;;;133.97;70.73;;;;;;;8.35;100.00;95800.34;4997446;28;20214;-81
2022/11/11 00:03:29;;;;;;;123.37;68.13;;;;;;;8.36;100.00;95793.38;5001082;28;20203;-81
2022/11/11 00:06:02;;;;;;;125.50;64.07;;;;;;;8.39;100.00;95793.03;5008563;28;20192;-80
2022/11/11 00:08:28;;;;;;;121.23;66.67;;;;;;;8.41;100.00;95780.69;5000128;28;20215;-79
2022/11/11 00:11:02;;;;;;;103.13;58.33;;;;;;;8.43;100.00;95789.91;4999513;28;20215;-79
2022/11/11 00:13:29;;;;;;;83.10;45.07;;;;;;;8.35;100.00;95786.56;4997174;28;20192;-78
2022/11/11 00:15:57;;;;;;;68.33;39.53;;;;;;;8.39;100.00;95793.84;4997073;28;20191;-76
2022/11/11 00:27:07;;;;;;;55.07;29.53;;;;;;;8.77;100.00;95802.38;5002795;28;20254;-77
2022/11/11 00:29:34;;;;;;;58.83;32.03;;;;;;;8.86;100.00;95790.13;5004316;28;20270;-77
2022/11/11 00:37:28;;;;;;;80.33;41.97;;;;;;;8.93;100.00;95804.78;5002367;28;20202;-77
2022/11/11 00:39:56;;;;;;;66.23;37.03;;;;;;;8.96;100.00;95798.44;5003058;28;20270;-76
2022/11/11 00:42:24;;;;;;;60.53;34.10;;;;;;;8.91;100.00;95791.19;5002356;28;20198;-77
2022/11/11 00:44:51;;;;;;;64.77;35.00;;;;;;;8.89;100.00;95789.75;5001655;28;20188;-78
2022/11/11 00:52:47;;;;;;;60.33;31.27;;;;;;;8.93;100.00;95796.19;5003115;28;20581;-77
2022/11/11 00:55:15;;;;;;;54.37;33.20;;;;;;;8.94;100.00;95798.63;5003375;28;20223;-77
2022/11/11 00:57:43;;;;;;;56.37;32.77;;;;;;;8.94;100.00;95795.22;5001503;28;20232;-75
2022/11/11 01:00:11;;;;;;;49.10;30.13;;;;;;;8.86;100.00;95792.72;5000969;28;20203;-75
2022/11/11 01:02:37;;;;;;;51.23;27.53;;;;;;;8.89;100.00;95793.16;5001548;28;20201;-75
2022/11/11 01:05:05;;;;;;;52.73;30.37;;;;;;;8.94;100.00;95782.25;5001885;28;20199;-76
2022/11/11 01:07:31;;;;;;;58.63;31.60;;;;;;;9.02;100.00;95787.34;5003322;28;20267;-77
2022/11/11 01:09:58;;;;;;;57.17;29.23;;;;;;;9.02;100.00;95795.13;5001176;28;20196;-75
2022/11/11 01:12:25;;;;;;;49.53;27.00;;;;;;;9.13;100.00;95787.69;5001422;28;20873;-77
2022/11/11 01:14:53;;;;;;;47.43;26.80;;;;;;;9.21;100.00;95784.19;5002816;28;20364;-76
2022/11/11 01:17:20;;;;;;;50.77;27.73;;;;;;;9.32;100.00;95790.72;5001504;28;20655;-76
2022/11/11 01:19:47;;;;;;;50.20;27.83;;;;;;;9.36;100.00;95789.34;5000960;28;20207;-76
2022/11/11 01:22:14;;;;;;;48.87;28.63;;;;;;;9.45;100.00;95796.84;5001527;28;20670;-76
2022/11/11 01:24:41;;;;;;;52.20;27.63;;;;;;;9.48;100.00;95790.50;5001858;28;20206;-76
2022/11/11 01:27:08;;;;;;;49.00;28.03;;;;;;;9.52;100.00;95791.75;5006311;28;20195;-75
2022/11/11 01:29:34;;;;;;;50.50;27.20;;;;;;;9.57;100.00;95797.19;5002658;28;20200;-77
2022/11/11 01:32:03;;;;;;;49.37;27.77;;;;;;;9.61;100.00;95793.22;5001083;28;20227;-76
2022/11/11 01:34:29;;;;;;;45.57;27.37;;;;;;;9.61;100.00;95788.84;5000704;28;20196;-76
2022/11/11 01:36:56;;;;;;;51.37;28.97;;;;;;;9.66;100.00;95789.09;4996243;28;20207;-76
2022/11/11 01:39:23;;;;;;;47.83;28.07;;;;;;;9.73;100.00;95783.16;5002321;28;20196;-77
2022/11/11 01:41:50;;;;;;;50.67;28.37;;;;;;;9.72;100.00;95791.94;4997725;28;20195;-79
2022/11/11 01:44:41;;;;;;;54.27;28.97;;;;;;;9.77;100.00;95789.59;5001555;28;20321;-78
2022/11/11 01:47:10;;;;;;;46.70;27.27;;;;;;;9.80;100.00;95789.22;5001842;28;20199;-77
2022/11/11 01:49:45;;;;;;;54.83;30.20;;;;;;;9.79;100.00;95792.81;5000573;28;20207;-77
2022/11/11 01:52:15;;;;;;;57.23;29.57;;;;;;;9.78;100.00;95799.00;5008113;28;20206;-77
2022/11/11 01:54:46;;;;;;;54.57;29.10;;;;;;;9.65;100.00;95795.28;5004203;28;20220;-78
2022/11/11 01:57:19;;;;;;;54.53;28.93;;;;;;;9.66;100.00;95801.28;5002906;28;20706;-78
2022/11/11 01:59:50;;;;;;;49.90;28.73;;;;;;;9.65;100.00;95797.88;5002807;28;20195;-78
2022/11/11 02:02:22;;;;;;;55.73;30.37;;;;;;;9.40;100.00;95795.78;5001065;28;20187;-77
2022/11/11 02:07:36;;;;;;;60.00;32.07;;;;;;;9.27;100.00;95801.63;5001204;28;20318;-78
2022/11/11 02:10:07;;;;;;;55.00;32.33;;;;;;;9.24;100.00;95801.16;5002762;28;20196;-78
2022/11/11 02:15:27;;;;;;;56.77;30.37;;;;;;;9.43;100.00;95804.03;4985222;28;20206;-78
2022/11/11 02:17:55;;;;;;;60.03;33.27;;;;;;;9.48;100.00;95800.88;5006771;28;20624;-79
2022/11/11 02:20:26;;;;;;;57.97;31.50;;;;;;;9.57;100.00;95804.97;5005216;28;20191;-78
2022/11/11 02:22:57;;;;;;;54.80;31.67;;;;;;;9.61;100.00;95809.59;5007111;28;20203;-78
2022/11/11 02:25:29;;;;;;;58.63;30.73;;;;;;;9.70;100.00;95807.69;5003174;28;20188;-77
2022/11/11 02:28:00;;;;;;;57.97;31.03;;;;;;;9.64;100.00;95798.84;5001603;28;20192;-78
2022/11/11 02:30:27;;;;;;;55.87;30.93;;;;;;;9.67;100.00;95803.66;5009723;28;20214;-79
2022/11/11 02:32:54;;;;;;;57.23;32.27;;;;;;;9.70;100.00;95810.28;4994741;28;20258;-79
2022/11/11 02:35:24;;;;;;;56.30;31.23;;;;;;;9.71;100.00;95806.72;5004735;28;20681;-79
2022/11/11 02:37:53;;;;;;;57.03;33.17;;;;;;;9.69;100.00;95809.50;5002076;28;20203;-78
2022/11/11 02:40:25;;;;;;;58.83;32.07;;;;;;;9.71;100.00;95809.31;4993106;28;20200;-79
2022/11/11 02:42:53;;;;;;;60.87;32.80;;;;;;;9.69;100.00;95808.69;5000728;28;20200;-79
2022/11/11 02:45:20;;;;;;;57.63;32.27;;;;;;;9.68;100.00;95805.28;5003259;28;20218;-79
2022/11/11 02:47:47;;;;;;;61.13;31.90;;;;;;;9.73;100.00;95804.72;4996590;28;20215;-78
2022/11/11 02:50:13;;;;;;;58.07;32.40;;;;;;;9.72;100.00;95810.13;4997020;28;20276;-79
2022/11/11 02:52:40;;;;;;;60.07;32.17;;;;;;;9.74;100.00;95803.75;5006485;28;20219;-79
2022/11/11 02:55:08;;;;;;;55.03;31.77;;;;;;;9.81;100.00;95801.22;5000525;28;20235;-76
2022/11/11 02:57:35;;;;;;;55.20;32.10;;;;;;;9.82;100.00;95803.63;4998913;28;20195;-76
2022/11/11 03:00:05;;;;;;;52.60;31.17;;;;;;;9.83;100.00;95807.03;5002987;28;20195;-76
2022/11/11 03:02:31;;;;;;;52.17;29.87;;;;;;;9.89;100.00;95806.31;4997780;28;20211;-78
2022/11/11 03:04:58;;;;;;;49.70;29.90;;;;;;;9.98;100.00;95811.19;5005896;28;20199;-78
2022/11/11 03:07:26;;;;;;;52.03;29.97;;;;;;;9.96;100.00;95815.75;5004613;28;20665;-77
2022/11/11 03:09:52;;;;;;;51.40;29.83;;;;;;;9.92;100.00;95814.53;5002567;28;20230;-77
2022/11/11 03:12:19;;;;;;;50.23;29.90;;;;;;;9.98;100.00;95815.56;5005208;28;20222;-78
2022/11/11 03:14:46;;;;;;;57.73;31.03;;;;;;;10.06;100.00;95818.03;5000556;28;20200;-77
2022/11/11 03:22:39;;;;;;;51.80;30.90;;;;;;;10.22;100.00;95810.03;5000957;28;20203;-76
2022/11/11 03:27:51;;;;;;;56.17;31.90;;;;;;;10.13;100.00;95811.94;5001702;28;20576;-76
2022/11/11 03:30:18;;;;;;;53.07;31.03;;;;;;;10.21;100.00;95811.84;4999864;28;20200;-75
2022/11/11 03:32:46;;;;;;;57.53;33.07;;;;;;;10.27;100.00;95803.28;5001527;28;20249;-76
2022/11/11 03:35:13;;;;;;;52.57;31.07;;;;;;;10.37;100.00;95802.97;5002608;28;20192;-75
2022/11/11 03:40:24;;;;;;;52.30;31.80;;;;;;;10.53;100.00;95794.09;5000537;28;20200;-76
2022/11/11 03:42:50;;;;;;;53.67;32.10;;;;;;;10.56;100.00;95807.50;4998862;28;20210;-77
2022/11/11 03:45:17;;;;;;;56.30;32.13;;;;;;;10.56;100.00;95811.91;4999247;28;20200;-76
2022/11/11 03:47:45;;;;;;;57.90;32.90;;;;;;;10.56;100.00;95806.72;4999537;28;20196;-77
2022/11/11 03:50:12;;;;;;;52.47;30.97;;;;;;;10.57;100.00;95811.72;4999199;28;20266;-76
2022/11/11 03:52:42;;;;;;;59.50;31.97;;;;;;;10.53;100.00;95805.31;5002258;28;20685;-78
2022/11/11 03:55:09;;;;;;;56.77;32.77;;;;;;;10.52;100.00;95810.66;5001395;28;20729;-78
2022/11/11 03:57:40;;;;;;;58.50;32.57;;;;;;;10.55;100.00;95805.91;5001677;28;20187;-79
2022/11/11 04:00:08;;;;;;;55.33;31.80;;;;;;;10.57;100.00;95810.91;5002701;28;20261;-79
2022/11/11 04:10:46;;;;;;;56.10;32.93;;;;;;;10.63;100.00;95799.75;4992430;28;20219;-76
2022/11/11 04:16:06;;;;;;;61.37;35.47;;;;;;;10.71;100.00;95803.00;5002931;28;20192;-76
2022/11/11 04:25:47;;;;;;;59.97;34.43;;;;;;;10.80;100.00;95808.88;5001301;28;20187;-78
2022/11/11 04:26:49;;;;;;;59.93;36.43;;;;;;;10.75;100.00;95809.44;5002570;28;20196;-78
2022/11/11 04:29:28;;;;;;;62.07;34.73;;;;;;;10.79;100.00;95812.47;4998176;28;20226;-78
2022/11/11 04:34:40;;;;;;;56.83;33.10;;;;;;;10.75;100.00;95809.44;4999446;28;20221;-78
2022/11/11 04:37:09;;;;;;;53.37;31.77;;;;;;;10.61;100.00;95827.75;5003299;28;20195;-78
2022/11/11 04:42:20;;;;;;;52.40;30.93;;;;;;;10.51;100.00;95820.25;5001781;28;20183;-77
2022/11/11 04:47:31;;;;;;;52.83;30.70;;;;;;;10.64;100.00;95830.78;5007755;28;20673;-80
2022/11/11 04:49:58;;;;;;;51.37;29.03;;;;;;;10.63;100.00;95834.34;5004502;28;20195;-76
2022/11/11 04:52:26;;;;;;;49.23;28.10;;;;;;;10.55;100.00;95831.09;5004382;28;20658;-76
2022/11/11 04:57:39;;;;;;;53.77;29.97;;;;;;;10.64;100.00;95838.56;5002033;28;20311;-76
2022/11/11 05:00:07;;;;;;;48.27;28.33;;;;;;;10.69;100.00;95833.59;5004583;28;20196;-80
2022/11/11 05:05:20;;;;;;;50.87;29.03;;;;;;;10.57;100.00;95831.69;5003794;28;20194;-81
2022/11/11 05:10:32;;;;;;;44.80;25.47;;;;;;;10.57;100.00;95829.09;5007703;28;20203;-81
2022/11/11 05:21:20;;;;;;;48.17;28.23;;;;;;;10.42;100.00;95831.78;4997447;28;20200;-80
2022/11/11 05:26:33;;;;;;;47.67;26.73;;;;;;;10.45;100.00;95838.38;5003662;28;20269;-79
2022/11/11 05:29:00;;;;;;;43.37;25.37;;;;;;;10.42;100.00;95839.56;5003545;28;20209;-79
2022/11/11 05:31:27;;;;;;;42.90;24.77;;;;;;;10.35;100.00;95849.13;5002810;28;20220;-75
2022/11/11 05:33:54;;;;;;;40.27;24.40;;;;;;;10.39;100.00;95852.16;5001842;28;20196;-78
2022/11/11 05:36:28;;;;;;;40.67;23.73;;;;;;;10.43;100.00;95854.19;5002144;28;20240;-76
2022/11/11 05:38:56;;;;;;;42.43;24.03;;;;;;;10.34;100.00;95860.50;5001322;28;20208;-76
2022/11/11 05:41:23;;;;;;;40.40;24.87;;;;;;;10.30;100.00;95853.28;4998288;28;20203;-79
2022/11/11 05:43:50;;;;;;;39.90;24.17;;;;;;;10.31;100.00;95857.47;5001803;28;20200;-79
2022/11/11 05:46:17;;;;;;;44.23;25.20;;;;;;;10.38;100.00;95859.16;4999938;28;20200;-80
2022/11/11 06:05:28;;;;;;;44.93;24.27;;;;;;;10.72;100.00;95887.81;5008506;28;20254;-78
2022/11/11 06:07:55;;;;;;;47.77;26.00;;;;;;;10.83;100.00;95894.31;5039766;28;20197;-78
2022/11/11 06:10:31;;;;;;;46.80;26.97;;;;;;;10.91;100.00;95890.78;5021309;28;20621;-78
2022/11/11 06:13:12;;;;;;;46.47;26.63;;;;;;;10.88;100.00;95893.75;5017711;28;20227;-74
2022/11/11 06:15:40;;;;;;;43.63;25.87;;;;;;;10.86;100.00;95906.94;5021984;28;20190;-79
2022/11/11 06:18:07;;;;;;;46.80;26.70;;;;;;;10.84;100.00;95908.91;5019649;28;20195;-78
2022/11/11 06:20:35;;;;;;;44.80;26.13;;;;;;;10.87;100.00;95902.53;5019328;28;20199;-79
2022/11/11 06:23:03;;;;;;;46.37;24.47;;;;;;;10.72;100.00;95911.22;5021960;28;20281;-79
2022/11/11 06:28:17;;;;;;;46.63;25.97;;;;;;;10.54;100.00;95912.66;5018602;28;20206;-78
2022/11/11 06:30:44;;;;;;;47.80;27.17;;;;;;;10.44;100.00;95912.16;5019193;28;20206;-78
2022/11/11 06:33:13;;;;;;;45.83;25.90;;;;;;;10.48;100.00;95922.00;5023542;28;20219;-74
2022/11/11 06:35:44;;;;;;;43.83;24.97;;;;;;;10.45;100.00;95926.75;5021897;28;20207;-78
2022/11/11 06:38:10;;;;;;;43.93;24.97;;;;;;;10.39;100.00;95930.91;5023992;28;20200;-79
2022/11/11 06:40:37;;;;;;;43.20;24.63;;;;;;;10.24;100.00;95930.16;5021153;28;20614;-79
2022/11/11 06:43:04;;;;;;;46.00;26.00;;;;;;;10.27;100.00;95922.00;5020176;28;20198;-79
2022/11/11 06:45:32;;;;;;;40.00;24.17;;;;;;;10.17;100.00;95927.50;5021385;28;20202;-77
2022/11/11 06:47:59;;;;;;;47.63;26.23;;;;;;;10.25;100.00;95944.75;5020951;28;20227;-79
2022/11/11 06:50:27;;;;;;;47.73;25.47;;;;;;;10.29;100.00;95945.19;5021475;28;20203;-79
2022/11/11 06:52:55;;;;;;;45.70;27.03;;;;;;;10.37;100.00;95947.66;5018533;28;20215;-80
2022/11/11 06:55:22;;;;;;;45.33;26.17;;;;;;;10.47;100.00;95948.19;5021769;28;20199;-79
2022/11/11 06:57:49;;;;;;;42.33;25.10;;;;;;;10.46;100.00;95942.19;5020883;28;20209;-80
2022/11/11 07:00:17;;;;;;;38.87;22.37;;;;;;;10.41;100.00;95941.94;5022162;28;20207;-79
2022/11/11 07:02:43;;;;;;;35.37;21.23;;;;;;;10.41;100.00;95941.13;5017929;28;20200;-80
2022/11/11 07:05:10;;;;;;;36.40;21.77;;;;;;;10.25;100.00;95932.56;5019346;28;20695;-81
2022/11/11 07:07:37;;;;;;;36.03;20.17;;;;;;;10.27;100.00;95948.78;5021274;28;20199;-79
2022/11/11 07:10:09;;;;;;;35.33;21.27;;;;;;;10.24;100.00;95950.94;5007380;28;20685;-81
2022/11/11 07:12:36;;;;;;;35.43;20.90;;;;;;;10.30;100.00;95946.81;5018816;28;20210;-79
2022/11/11 07:15:02;;;;;;;40.60;22.07;;;;;;;10.31;100.00;95945.81;5018820;28;20203;-78
2022/11/11 07:17:29;;;;;;;41.80;22.50;;;;;;;10.30;100.00;95945.03;5020036;28;20202;-78
2022/11/11 07:19:56;;;;;;;37.77;21.70;;;;;;;10.27;100.00;95953.97;5022797;28;20195;-78
2022/11/11 07:22:23;;;;;;;37.77;21.60;;;;;;;10.24;100.00;95959.53;5018888;28;20206;-78
2022/11/11 07:24:49;;;;;;;35.17;19.67;;;;;;;10.27;100.00;95954.97;5018994;28;20210;-78
2022/11/11 07:27:17;;;;;;;35.87;21.23;;;;;;;10.23;100.00;95960.53;5021212;28;20349;-78
2022/11/11 07:29:44;;;;;;;39.50;22.00;;;;;;;10.18;100.00;95960.28;5026290;28;20209;-79
2022/11/11 07:32:11;;;;;;;39.93;21.80;;;;;;;10.14;100.00;95958.22;5017423;28;20219;-79
2022/11/11 07:34:38;;;;;;;37.90;21.57;;;;;;;10.14;100.00;95966.00;5013130;28;20199;-75
2022/11/11 07:37:05;;;;;;;38.47;22.40;;;;;;;10.12;100.00;95968.78;5025043;28;20207;-79
2022/11/11 07:39:31;;;;;;;37.67;21.40;;;;;;;10.14;100.00;95966.81;5024354;28;20211;-80
2022/11/11 07:41:58;;;;;;;39.47;21.83;;;;;;;10.12;100.00;95973.16;5017004;28;20234;-80
2022/11/11 07:44:26;;;;;;;39.43;20.57;;;;;;;10.13;100.00;95973.00;5016892;28;20256;-77
2022/11/11 07:46:53;;;;;;;40.17;22.33;;;;;;;10.18;100.00;95981.06;5018093;28;20211;-77
2022/11/11 07:49:20;;;;;;;42.23;23.70;;;;;;;10.24;100.00;95985.50;5024218;28;20225;-75
2022/11/11 07:51:47;;;;;;;40.67;23.50;;;;;;;10.43;100.00;95985.91;5019257;28;20234;-75
2022/11/11 07:54:13;;;;;;;42.50;22.73;;;;;;;10.47;100.00;95987.19;5018366;28;20202;-74
2022/11/11 07:56:40;;;;;;;45.40;21.70;;;;;;;10.46;100.00;95988.16;5019668;28;20256;-75
2022/11/11 07:59:07;;;;;;;41.63;20.87;;;;;;;10.54;100.00;95998.44;5020039;28;20202;-74
2022/11/11 08:01:35;;;;;;;32.83;18.93;;;;;;;10.56;100.00;95991.28;5021806;28;20199;-74
2022/11/11 08:04:02;;;;;;;31.03;18.23;;;;;;;10.61;100.00;96001.91;5020209;28;20227;-74
2022/11/11 08:06:29;;;;;;;30.07;18.33;;;;;;;10.53;100.00;95997.66;5020485;28;20222;-74
2022/11/11 08:08:56;;;;;;;36.53;18.33;;;;;;;10.55;100.00;96000.88;5022331;28;20213;-74
2022/11/11 08:14:04;;;;;;;37.53;20.03;;;;;;;10.56;100.00;95993.88;5019783;28;20261;-75
2022/11/11 08:16:30;;;;;;;43.80;22.90;;;;;;;10.62;100.00;95993.91;5020035;28;20203;-75
2022/11/11 08:18:59;;;;;;;44.10;23.37;;;;;;;10.68;100.00;96000.97;5020075;28;20213;-74
2022/11/11 08:21:26;;;;;;;39.23;21.93;;;;;;;10.62;100.00;96001.72;5018791;28;20657;-75
2022/11/11 08:23:53;;;;;;;33.40;19.20;;;;;;;10.70;100.00;95993.00;5019911;28;20202;-74
2022/11/11 08:26:21;;;;;;;34.37;19.60;;;;;;;10.81;100.00;96001.13;5018494;28;20215;-75
2022/11/11 08:28:48;;;;;;;35.77;20.50;;;;;;;10.79;100.00;95990.09;5018606;28;20203;-75
2022/11/11 08:31:15;;;;;;;34.63;20.63;;;;;;;10.86;100.00;96002.34;5020027;28;20213;-76
2022/11/11 08:33:42;;;;;;;31.63;19.07;;;;;;;10.89;100.00;95996.78;5017270;28;20234;-74
2022/11/11 08:36:11;;;;;;;36.83;19.93;;;;;;;10.87;100.00;96009.16;5018609;28;20196;-75
2022/11/11 08:38:38;;;;;;;34.77;19.60;;;;;;;10.84;100.00;96005.16;5021160;28;20214;-75
2022/11/11 08:41:07;;;;;;;39.00;20.07;;;;;;;10.80;100.00;95996.09;5020635;28;20198;-75
2022/11/11 08:43:34;;;;;;;38.90;20.10;;;;;;;10.84;100.00;96005.16;5020117;28;20199;-75
2022/11/11 08:46:03;;;;;;;36.80;21.70;;;;;;;10.82;100.00;96002.72;5019637;28;20192;-75
2022/11/11 08:48:30;;;;;;;36.37;22.70;;;;;;;10.81;100.00;96003.72;5021437;28;20248;-77
2022/11/11 08:50:57;;;;;;;35.73;21.23;;;;;;;10.77;100.00;95997.28;5024153;28;20191;-75
2022/11/11 08:53:26;;;;;;;35.23;21.43;;;;;;;10.88;100.00;95998.56;5012077;28;20236;-75
2022/11/11 08:55:53;;;;;;;33.20;19.53;;;;;;;10.83;100.00;95993.13;5022105;28;20590;-75
2022/11/11 08:58:20;;;;;;;32.53;19.53;;;;;;;10.97;100.00;96009.66;5023947;28;20286;-75
2022/11/11 09:00:47;;;;;;;30.47;18.57;;;;;;;10.99;100.00;95997.28;5025167;28;20199;-75
2022/11/11 09:03:14;;;;;;;29.17;17.40;;;;;;;10.92;100.00;95991.19;5021684;28;20852;-75
2022/11/11 09:05:43;;;;;;;30.73;17.30;;;;;;;10.92;100.00;96005.00;5024701;28;20239;-75
2022/11/11 09:08:09;;;;;;;31.90;16.87;;;;;;;10.94;100.00;95994.44;5021983;28;20703;-76
2022/11/11 09:10:38;;;;;;;26.67;16.27;;;;;;;10.94;100.00;95994.44;5022769;28;20203;-76
2022/11/11 09:13:05;;;;;;;27.33;16.13;;;;;;;11.00;100.00;95996.28;5023348;28;20700;-75
2022/11/11 09:15:32;;;;;;;26.47;15.17;;;;;;;11.00;100.00;95993.66;5022921;28;20207;-75
2022/11/11 09:18:00;;;;;;;27.83;16.87;;;;;;;11.11;100.00;96001.00;5024490;28;20201;-77
2022/11/11 09:20:27;;;;;;;21.90;14.27;;;;;;;11.22;100.00;96003.09;5029878;28;20232;-76
2022/11/11 09:22:54;;;;;;;21.70;13.90;;;;;;;11.14;100.00;95996.19;5022422;28;20556;-75
2022/11/11 09:25:22;;;;;;;19.37;12.23;;;;;;;11.24;100.00;96003.69;5023123;28;20552;-75
2022/11/11 09:27:56;;;;;;;20.50;13.03;;;;;;;11.25;100.00;96005.31;5023379;28;20206;-75
2022/11/11 09:30:23;;;;;;;22.40;13.13;;;;;;;11.29;100.00;95998.72;5022801;28;20645;-76
2022/11/11 09:32:50;;;;;;;22.83;13.03;;;;;;;11.33;100.00;95995.56;5022872;28;20227;-75
2022/11/11 09:35:17;;;;;;;25.77;14.97;;;;;;;11.43;100.00;95997.03;5020766;28;20196;-76
2022/11/11 09:37:53;;;;;;;26.60;14.57;;;;;;;11.55;100.00;95990.28;5022054;28;20202;-79
2022/11/11 09:40:23;;;;;;;23.30;14.53;;;;;;;11.30;100.00;95982.94;5023365;28;20186;-76
2022/11/11 09:43:03;;;;;;;23.17;14.80;;;;;;;11.14;100.00;95991.00;5024508;28;20680;-75
2022/11/11 09:45:45;;;;;;;22.03;13.70;;;;;;;11.21;100.00;95989.25;5025750;28;20347;-74
2022/11/11 09:48:34;;;;;;;19.50;12.57;;;;;;;10.90;100.00;95930.78;5027315;28;20191;-78
2022/11/11 09:51:03;;;;;;;21.73;12.93;;;;;;;11.32;100.00;95973.13;5020626;28;20199;-75
2022/11/11 09:53:36;;;;;;;20.07;13.13;;;;;;;11.46;100.00;95978.44;5023689;28;20265;-74
2022/11/11 09:56:08;;;;;;;18.67;13.60;;;;;;;11.56;100.00;95978.88;5024968;28;20195;-74
2022/11/11 09:58:41;;;;;;;21.87;13.03;;;;;;;11.37;100.00;95975.16;5024866;28;20670;-74
2022/11/11 10:01:12;;;;;;;20.33;12.63;;;;;;;11.21;100.00;95972.84;5023228;28;20202;-74
2022/11/11 10:03:43;;;;;;;19.90;13.97;;;;;;;11.28;100.00;95971.09;5022423;28;20731;-76
2022/11/11 10:06:17;;;;;;;21.43;14.00;;;;;;;11.36;100.00;95969.16;5020523;28;20204;-74
2022/11/11 10:08:49;;;;;;;18.30;11.93;;;;;;;11.43;100.00;95963.19;5023642;28;20210;-76
2022/11/11 10:11:22;;;;;;;19.30;12.10;;;;;;;11.44;100.00;95965.59;5021251;28;20239;-76
2022/11/11 10:13:54;;;;;;;20.27;12.77;;;;;;;11.43;100.00;95977.00;5018432;28;20253;-75
2022/11/11 10:16:28;;;;;;;19.93;13.03;;;;;;;11.39;100.00;95967.97;5023576;28;20198;-75
2022/11/11 10:19:14;;;;;;;18.77;12.57;;;;;;;11.24;100.00;95962.06;5019821;28;20237;-76
2022/11/11 10:21:46;;;;;;;20.77;11.67;;;;;;;11.33;100.00;95968.72;5017578;28;20194;-75
2022/11/11 10:24:17;;;;;;;18.83;12.47;;;;;;;11.43;100.00;95969.19;5019875;28;20229;-75
2022/11/11 10:26:46;;;;;;;23.23;13.10;;;;;;;11.48;100.00;95971.22;5021365;28;20803;-75
2022/11/11 10:29:18;;;;;;;17.87;12.90;;;;;;;11.46;100.00;95955.00;5020969;28;20265;-76
2022/11/11 10:31:51;;;;;;;24.97;14.60;;;;;;;11.54;100.00;95957.44;5021510;28;20677;-75
2022/11/11 10:34:19;;;;;;;22.67;14.30;;;;;;;11.66;100.00;95961.13;5018651;28;20253;-75
2022/11/11 10:36:50;;;;;;;22.10;13.67;;;;;;;11.74;100.00;95961.81;5015535;28;20203;-74
2022/11/11 10:39:25;;;;;;;25.97;16.77;;;;;;;11.47;100.00;95957.41;5022240;28;20198;-76
2022/11/11 10:41:52;;;;;;;32.73;20.20;;;;;;;11.32;100.00;95954.91;5027432;28;20194;-77
2022/11/11 10:44:23;;;;;;;23.50;15.23;;;;;;;11.38;100.00;95951.53;5031569;28;20203;-77
2022/11/11 10:46:58;;;;;;;36.67;20.30;;;;;;;11.49;100.00;95957.19;5021749;28;20253;-78
2022/11/11 10:49:30;;;;;;;27.33;14.93;;;;;;;11.52;100.00;95949.81;5021152;28;20203;-78
2022/11/11 10:52:06;;;;;;;23.37;14.40;;;;;;;11.60;100.00;95951.47;5016741;28;20203;-77
2022/11/11 10:54:42;;;;;;;21.53;12.97;;;;;;;11.63;98.61;95938.09;5023138;28;20696;-77
2022/11/11 10:57:14;;;;;;;23.43;13.97;;;;;;;11.62;98.15;95946.88;5025358;28;20199;-77
2022/11/11 10:59:50;;;;;;;28.37;16.87;;;;;;;11.64;97.87;95942.28;5026875;28;20224;-78
2022/11/11 11:02:22;;;;;;;18.33;11.67;;;;;;;11.65;97.54;95938.69;5014231;28;20195;-77
2022/11/11 11:04:53;;;;;;;19.33;12.00;;;;;;;11.62;97.72;95941.66;5021857;28;20300;-79
2022/11/11 11:07:27;;;;;;;24.20;14.30;;;;;;;11.68;97.39;95943.50;5025675;28;20202;-75
2022/11/11 11:10:00;;;;;;;20.17;13.00;;;;;;;11.68;96.98;95931.28;5023274;28;20198;-76
2022/11/11 11:12:34;;;;;;;24.97;16.30;;;;;;;11.71;96.52;95937.94;5016717;28;20748;-74
2022/11/11 11:15:06;;;;;;;22.57;14.17;;;;;;;11.85;95.77;95927.41;5026316;28;20260;-75
2022/11/11 11:17:38;;;;;;;19.30;13.10;;;;;;;11.67;96.12;95932.28;5021193;28;20196;-75
2022/11/11 11:20:12;;;;;;;18.73;12.10;;;;;;;11.69;94.29;95929.47;5016750;28;20219;-76
2022/11/11 11:22:47;;;;;;;16.10;10.40;;;;;;;11.78;92.98;95929.16;5013713;28;20265;-75
2022/11/11 11:25:14;;;;;;;17.60;10.77;;;;;;;11.90;92.27;95922.41;5018180;28;20213;-75
2022/11/11 11:27:41;;;;;;;16.73;10.20;;;;;;;12.08;90.52;95929.69;5018166;28;20206;-74
2022/11/11 11:30:15;;;;;;;17.03;9.30;;;;;;;12.15;88.54;95927.88;5015382;28;20218;-73
2022/11/11 11:32:43;;;;;;;15.33;8.73;;;;;;;12.19;87.75;95912.66;5014343;28;20207;-74
2022/11/11 11:35:29;;;;;;;14.77;9.40;;;;;;;12.30;88.77;95912.91;5016746;28;20203;-75
2022/11/11 11:37:56;;;;;;;23.13;12.50;;;;;;;12.25;88.46;95906.69;5020538;28;20294;-75
2022/11/11 11:40:22;;;;;;;19.57;11.03;;;;;;;12.25;88.18;95906.69;5016020;28;20199;-74
2022/11/11 11:42:49;;;;;;;17.13;10.53;;;;;;;12.34;88.13;95908.09;5016254;28;20205;-74
2022/11/11 11:45:22;;;;;;;14.03;9.33;;;;;;;12.36;88.07;95904.28;5020055;28;20326;-74
2022/11/11 11:48:05;;;;;;;11.97;8.20;;;;;;;12.30;87.65;95902.47;5016489;28;20225;-74
2022/11/11 11:50:41;;;;;;;10.93;8.10;;;;;;;12.26;88.32;95898.66;5018041;28;20740;-75
2022/11/11 11:53:25;;;;;;;10.97;7.70;;;;;;;12.37;87.53;95900.69;5016020;28;20222;-76
2022/11/11 11:55:58;;;;;;;16.13;10.10;;;;;;;12.49;86.94;95899.13;5018524;28;20222;-75
2022/11/11 11:58:35;;;;;;;12.63;8.93;;;;;;;12.55;85.42;95897.53;5020353;28;20674;-76
2022/11/11 12:01:08;;;;;;;15.97;8.43;;;;;;;12.61;85.83;95907.13;5018549;28;20381;-75
2022/11/11 12:04:08;;;;;;;15.17;8.13;;;;;;;12.66;85.65;95901.31;5015979;28;20244;-77
2022/11/11 12:06:48;;;;;;;11.93;8.13;;;;;;;12.70;85.17;95898.09;5015487;28;20199;-75
2022/11/11 12:09:27;;;;;;;17.27;8.00;;;;;;;12.75;85.35;95902.75;5023218;28;20195;-76
2022/11/11 12:12:05;;;;;;;16.07;9.10;;;;;;;12.80;85.74;95895.91;5015821;28;20214;-76
2022/11/11 12:14:51;;;;;;;18.43;8.97;;;;;;;12.91;84.85;95900.53;5024417;28;20214;-75
2022/11/11 12:17:30;;;;;;;13.70;9.00;;;;;;;12.92;83.77;95899.53;5018129;28;20545;-74
2022/11/11 12:20:08;;;;;;;20.40;9.83;;;;;;;12.83;83.70;95890.31;5019430;28;20570;-74
2022/11/11 12:22:49;;;;;;;21.27;11.30;;;;;;;12.80;83.61;95897.72;5023260;28;20207;-74
2022/11/11 12:25:20;;;;;;;18.17;11.63;;;;;;;12.72;84.11;95885.69;5023356;28;20186;-74
2022/11/11 12:27:59;;;;;;;14.33;9.07;;;;;;;12.65;84.29;95884.06;5020691;28;20195;-75
2022/11/11 12:30:28;;;;;;;12.00;7.37;;;;;;;12.54;84.46;95885.47;5026187;28;20204;-75
2022/11/11 12:33:20;;;;;;;12.57;7.87;;;;;;;12.53;84.55;95878.63;5018801;28;20233;-75
2022/11/11 12:36:01;;;;;;;13.17;7.97;;;;;;;12.57;84.72;95876.44;5018193;28;20222;-74
2022/11/11 12:38:56;;;;;;;13.63;8.50;;;;;;;12.61;85.21;95875.81;5019782;28;20203;-76
2022/11/11 12:41:34;;;;;;;13.90;8.87;;;;;;;12.38;86.00;95881.44;5013953;28;20202;-75
2022/11/11 12:44:07;;;;;;;21.47;12.47;;;;;;;12.13;87.08;95877.78;5020422;28;20222;-75
2022/11/11 12:46:43;;;;;;;18.73;11.07;;;;;;;12.16;87.25;95869.56;5025041;28;20199;-74
2022/11/11 12:49:30;;;;;;;19.77;12.47;;;;;;;12.34;87.11;95880.22;5019191;28;20190;-74
2022/11/11 12:52:04;;;;;;;12.53;8.03;;;;;;;12.45;86.02;95877.03;5025976;28;20211;-76
2022/11/11 12:54:38;;;;;;;13.50;7.73;;;;;;;12.50;86.10;95879.03;5020404;28;20576;-75
2022/11/11 12:57:14;;;;;;;13.90;7.73;;;;;;;12.23;87.49;95880.81;5019595;28;20199;-74
2022/11/11 12:59:58;;;;;;;10.00;6.93;;;;;;;11.85;89.04;95877.09;5020264;28;20226;-74
2022/11/11 13:03:05;;;;;;;13.73;7.50;;;;;;;11.98;88.74;95884.94;5024098;28;20199;-74
2022/11/11 13:05:36;;;;;;;15.67;8.93;;;;;;;11.77;89.69;95888.50;5020046;28;20222;-75
2022/11/11 13:08:42;;;;;;;16.97;8.13;;;;;;;11.91;89.60;95884.94;5019694;28;20207;-75
2022/11/11 13:11:15;;;;;;;17.27;8.97;;;;;;;12.05;88.39;95891.00;5019589;28;20199;-76